Terminal Aerodrome Forecast
Issued by NWS Cleveland, OH

Home | Current Version | Previous Version | Graphics & Text | Print | Product List | Glossary On
Versions: 1 2 3 4 5 6 7 8 9 10 11 12 13
662
FTUS41 KCLE 210523
TAFERI
TAF
KERI 210523Z 2106/2206 16002KT P6SM FEW250
      TEMPO 2109/2113 4SM BR
     FM211500 33004KT P6SM FEW250
     FM211800 02008KT P6SM FEW050
     FM220300 14002KT P6SM FEW250=

USA.gov is the U.S. government's official web portal to all federal, state and local government web resources and services.